Gregory, South Dakota
Current Conditions -  °F | °C
As of 4:53 AM on Friday 21 Nov 2014 (Local Time) from KICR Reporting Station
Clear Clear  
Wind Chill: -8°   Ceiling: Unl
Heat Index: -1°   Visibility: 10mi
Dew Point: -6°   Wind: 26mph
Humidity: 67%   Direction: 200°SSW
Pressure: 29.87"   Gusts: 33mph
Location:  43.23°N, 99.43°W
Report Text: KICR 211053Z AUTO 20023G29KT 10SM CLR M01/M06 A2987 RMK AO2 PK WND 21033/1033 SLP138 T10061061
Loading
Personal Weather Stations






























Interactive Weather Map New forecast layout! Learn more

10-Day Weather Forecast

Advertisements
Track Severe Weather on mobile